Time;durP1;ratioP1;P1;durP2;ratioP2;P2;SDS_P1;SDS_P2;PMS_P1;PMS_P2;Temp;Humidity;BMP_temperature;BMP_pressure;BME280_temperature;BME280_humidity;BME280_pressure;Samples;Min_cycle;Max_cycle;Signal;HPM_P1;HPM_P2
2023/03/17 00:02:30;;;;;;;3.00;2.53;;;10.60;77.70;;;;;;5066247;28;20468;-84
2023/03/17 00:05:23;;;;;;;3.33;1.70;;;10.60;77.90;;;;;;5056281;28;20567;-84
2023/03/17 00:08:14;;;;;;;2.00;1.80;;;10.70;77.90;;;;;;5050038;28;20464;-84
2023/03/17 00:10:44;;;;;;;3.97;2.13;;;10.60;77.80;;;;;;5060083;28;20506;-82
2023/03/17 00:13:18;;;;;;;2.57;2.37;;;10.60;78.00;;;;;;5067504;28;20455;-82
2023/03/17 00:16:05;;;;;;;3.97;2.40;;;10.60;78.40;;;;;;5068194;28;20436;-81
2023/03/17 00:19:23;;;;;;;4.23;2.47;;;10.60;78.40;;;;;;5064310;28;20465;-86
2023/03/17 00:25:28;;;;;;;1.80;1.70;;;10.50;79.20;;;;;;5066626;28;20471;-83
2023/03/17 00:32:01;;;;;;;2.20;2.00;;;10.50;79.30;;;;;;5073620;28;20508;-84
2023/03/17 00:34:44;;;;;;;3.17;2.13;;;10.60;79.40;;;;;;5079232;28;20453;-84
2023/03/17 00:37:31;;;;;;;3.30;2.30;;;10.40;79.40;;;;;;5076525;28;20424;-85
2023/03/17 00:40:29;;;;;;;2.87;2.67;;;10.30;80.10;;;;;;5074734;28;20467;-84
2023/03/17 00:43:14;;;;;;;2.50;2.20;;;10.40;80.20;;;;;;5075702;28;20448;-85
2023/03/17 00:45:56;;;;;;;3.33;2.90;;;10.60;79.70;;;;;;5073437;28;20479;-84
2023/03/17 00:52:08;;;;;;;5.67;2.97;;;10.50;79.90;;;;;;5071728;28;20448;-85
2023/03/17 00:54:58;;;;;;;2.93;2.20;;;10.50;79.90;;;;;;5080809;28;20475;-84
2023/03/17 00:57:47;;;;;;;2.47;2.20;;;10.40;80.60;;;;;;5059042;28;20528;-82
2023/03/17 01:00:34;;;;;;;3.43;2.00;;;10.30;80.60;;;;;;5044706;28;20563;-84
2023/03/17 01:03:14;;;;;;;5.13;2.17;;;10.20;81.20;;;;;;5048564;28;20534;-84
2023/03/17 01:05:52;;;;;;;2.53;2.33;;;10.30;80.90;;;;;;5056454;28;20473;-85
2023/03/17 01:08:52;;;;;;;3.37;2.50;;;10.20;81.20;;;;;;5073304;28;20484;-85
2023/03/17 01:11:36;;;;;;;3.63;2.07;;;10.40;81.50;;;;;;5078116;28;20519;-85
2023/03/17 01:14:43;;;;;;;2.87;2.10;;;10.40;80.90;;;;;;5073084;28;20440;-85
2023/03/17 01:17:22;;;;;;;3.70;2.40;;;10.40;81.40;;;;;;5061242;28;20539;-85
2023/03/17 01:19:59;;;;;;;2.43;2.23;;;10.50;81.20;;;;;;5057381;28;20487;-83
2023/03/17 01:22:42;;;;;;;2.50;2.10;;;10.50;81.10;;;;;;5058990;28;20467;-83
2023/03/17 01:25:42;;;;;;;3.37;2.27;;;10.60;80.50;;;;;;5037136;28;20511;-83
2023/03/17 01:28:24;;;;;;;2.40;1.90;;;10.50;80.70;;;;;;5065676;28;20449;-83
2023/03/17 01:31:25;;;;;;;3.00;2.70;;;10.40;80.90;;;;;;5052736;28;20447;-84
2023/03/17 01:34:08;;;;;;;2.87;2.13;;;10.40;80.80;;;;;;5045775;28;20486;-83
2023/03/17 01:37:14;;;;;;;4.73;2.70;;;10.30;81.00;;;;;;5052556;28;20450;-83
2023/03/17 01:39:56;;;;;;;3.10;2.33;;;10.30;81.70;;;;;;5053247;28;20479;-83
2023/03/17 01:42:35;;;;;;;3.37;2.50;;;10.30;81.70;;;;;;5061136;28;20496;-85
2023/03/17 01:46:11;;;;;;;2.70;2.10;;;10.20;82.00;;;;;;5056751;28;20480;-82
2023/03/17 01:49:08;;;;;;;3.40;2.43;;;10.10;82.00;;;;;;4982351;28;20467;-84
2023/03/17 01:51:56;;;;;;;3.40;2.80;;;10.00;82.60;;;;;;5056582;28;20543;-84
2023/03/17 01:55:21;;;;;;;;;;;;;;;;;;;;;
2023/03/17 01:58:06;;;;;;;2.50;2.27;;;10.00;82.80;;;;;;5060539;28;20453;-83
2023/03/17 02:00:56;;;;;;;2.20;2.00;;;10.00;82.50;;;;;;5050967;28;20468;-84
2023/03/17 02:03:37;;;;;;;2.60;2.40;;;10.00;82.80;;;;;;5059042;28;20460;-84
2023/03/17 02:06:29;;;;;;;2.17;1.97;;;10.10;82.80;;;;;;5054473;28;20481;-83
2023/03/17 02:09:25;;;;;;;2.57;2.23;;;10.10;82.60;;;;;;5058131;28;20526;-83
2023/03/17 02:12:05;;;;;;;3.10;2.50;;;10.20;82.70;;;;;;5056127;28;20462;-84
2023/03/17 02:15:04;;;;;;;3.80;2.43;;;10.10;82.70;;;;;;5051825;28;20459;-83
2023/03/17 02:17:53;;;;;;;4.20;2.87;;;10.10;82.50;;;;;;5049580;28;20467;-84
2023/03/17 02:23:43;;;;;;;4.83;2.30;;;10.00;82.60;;;;;;5058738;28;20461;-85
2023/03/17 02:26:24;;;;;;;2.50;2.37;;;10.10;82.90;;;;;;5062871;28;20468;-85
2023/03/17 02:29:04;;;;;;;2.83;2.63;;;10.00;83.80;;;;;;5058449;28;20481;-86
2023/03/17 02:32:06;;;;;;;2.20;2.00;;;9.90;84.40;;;;;;5050304;28;20485;-84
2023/03/17 02:34:53;;;;;;;2.33;2.13;;;10.00;83.20;;;;;;5059053;28;20455;-84
2023/03/17 02:37:46;;;;;;;8.00;2.87;;;9.90;84.30;;;;;;5059255;28;21016;-83
2023/03/17 02:40:33;;;;;;;3.60;3.30;;;9.90;84.40;;;;;;5069258;28;20625;-82
2023/03/17 02:43:15;;;;;;;5.33;3.07;;;10.00;83.50;;;;;;5055589;28;20482;-84
2023/03/17 02:45:58;;;;;;;3.00;2.47;;;9.80;84.50;;;;;;5055596;28;20472;-82
2023/03/17 02:49:05;;;;;;;;;;;;;;;;;;;;;
2023/03/17 02:52:22;;;;;;;3.40;2.73;;;9.80;85.70;;;;;;5058266;28;20457;-83
2023/03/17 02:55:25;;;;;;;4.17;3.00;;;9.90;84.90;;;;;;5062281;28;20452;-82
2023/03/17 02:58:11;;;;;;;3.23;2.30;;;9.90;84.60;;;;;;5059450;28;20441;-83
2023/03/17 03:01:08;;;;;;;3.10;2.80;;;10.00;83.30;;;;;;5058542;28;20457;-83
2023/03/17 03:03:58;;;;;;;;;;;;;;;;;;;;;
2023/03/17 03:07:32;;;;;;;2.83;2.37;;;9.80;84.80;;;;;;5001013;28;20506;-84
2023/03/17 03:10:41;;;;;;;;;;;;;;;;;;;;;
2023/03/17 03:13:28;;;;;;;3.20;2.60;;;9.60;85.10;;;;;;5044989;28;20462;-84
2023/03/17 03:16:18;;;;;;;4.03;2.97;;;9.70;85.10;;;;;;5053434;28;20464;-83
2023/03/17 03:19:13;;;;;;;2.33;2.13;;;9.60;85.50;;;;;;5057943;28;20560;-82
2023/03/17 03:22:25;;;;;;;2.23;1.93;;;9.80;85.40;;;;;;5061726;28;20461;-83
2023/03/17 03:25:03;;;;;;;2.83;2.63;;;9.70;85.00;;;;;;5060908;28;20456;-85
2023/03/17 03:27:45;;;;;;;2.20;2.10;;;9.70;85.10;;;;;;5054694;28;20528;-85
2023/03/17 03:30:37;;;;;;;2.70;2.50;;;9.50;85.70;;;;;;5038976;28;20501;-83
2023/03/17 03:33:33;;;;;;;2.40;2.20;;;9.40;86.50;;;;;;5052508;28;20499;-82
2023/03/17 03:36:24;;;;;;;2.80;2.50;;;9.70;86.40;;;;;;5061368;28;20479;-84
2023/03/17 03:38:56;;;;;;;4.30;2.83;;;9.80;85.50;;;;;;5057503;28;20472;-83
2023/03/17 03:41:28;;;;;;;4.60;2.70;;;9.50;85.80;;;;;;5060176;28;20476;-86
2023/03/17 03:44:07;;;;;;;2.80;2.60;;;9.40;86.30;;;;;;5057227;28;20463;-83
2023/03/17 03:46:37;;;;;;;2.73;2.53;;;9.50;86.70;;;;;;5066300;28;20495;-85
2023/03/17 03:49:08;;;;;;;4.23;2.83;;;9.60;86.70;;;;;;5060251;28;20797;-85
2023/03/17 03:51:42;;;;;;;6.43;3.03;;;9.70;86.40;;;;;;5067776;28;20440;-85
2023/03/17 03:54:12;;;;;;;3.23;2.93;;;9.60;86.40;;;;;;5066436;28;20535;-83
2023/03/17 03:56:47;;;;;;;2.73;2.53;;;9.60;86.60;;;;;;5063952;28;20445;-81
2023/03/17 03:59:27;;;;;;;3.70;2.60;;;9.60;86.60;;;;;;5062751;28;20532;-82
2023/03/17 04:02:05;;;;;;;2.67;2.40;;;9.70;86.80;;;;;;5067301;28;20464;-82
2023/03/17 04:04:38;;;;;;;2.73;2.10;;;9.60;85.50;;;;;;5053119;28;20464;-83
2023/03/17 04:07:08;;;;;;;3.17;2.57;;;9.70;85.50;;;;;;5064487;28;20480;-82
2023/03/17 04:09:39;;;;;;;3.50;3.10;;;9.60;85.80;;;;;;5063811;28;20479;-84
2023/03/17 04:12:15;;;;;;;3.43;2.47;;;9.70;85.70;;;;;;5060560;28;20456;-84
2023/03/17 04:14:51;;;;;;;3.37;2.70;;;9.60;85.80;;;;;;5055830;28;20440;-84
2023/03/17 04:17:22;;;;;;;2.77;2.57;;;9.40;86.30;;;;;;5061453;28;20462;-84
2023/03/17 04:19:59;;;;;;;5.07;2.97;;;9.50;87.00;;;;;;5045902;28;20532;-85
2023/03/17 04:22:30;;;;;;;3.27;2.97;;;9.60;86.40;;;;;;5062703;28;20452;-84
2023/03/17 04:25:05;;;;;;;3.20;2.90;;;9.70;85.90;;;;;;5066225;28;20839;-83
2023/03/17 04:27:33;;;;;;;6.27;3.60;;;9.70;85.80;;;;;;5076058;28;20440;-84
2023/03/17 04:30:03;;;;;;;3.90;3.23;;;9.60;85.80;;;;;;5066902;28;20547;-82
2023/03/17 04:32:37;;;;;;;4.90;3.13;;;9.50;86.20;;;;;;5054676;28;20453;-83
2023/03/17 04:35:16;;;;;;;2.97;2.70;;;9.50;86.40;;;;;;5050773;28;20477;-85
2023/03/17 04:37:44;;;;;;;3.17;2.83;;;9.50;86.10;;;;;;5055085;28;20452;-83
2023/03/17 04:40:15;;;;;;;2.60;2.40;;;9.50;86.60;;;;;;5062951;28;20802;-83
2023/03/17 04:42:50;;;;;;;3.53;3.23;;;9.60;86.60;;;;;;5054880;28;20551;-81
2023/03/17 04:47:58;;;;;;;3.10;2.80;;;9.40;86.90;;;;;;5054433;28;20483;-84
2023/03/17 04:50:27;;;;;;;4.70;3.47;;;9.60;86.50;;;;;;5039214;28;20476;-84
2023/03/17 04:53:04;;;;;;;3.20;2.87;;;9.60;86.30;;;;;;5039258;28;20471;-83
2023/03/17 04:55:36;;;;;;;3.30;3.00;;;9.50;86.20;;;;;;5046297;28;20498;-84
2023/03/17 04:58:07;;;;;;;3.93;2.77;;;9.40;86.60;;;;;;5045812;28;20514;-84
2023/03/17 05:00:40;;;;;;;3.30;2.90;;;9.60;86.30;;;;;;5041736;28;20461;-85
2023/03/17 05:03:08;;;;;;;3.53;2.90;;;9.70;86.00;;;;;;5042969;28;20449;-84
2023/03/17 05:05:57;;;;;;;4.73;3.83;;;9.70;85.90;;;;;;5035548;28;20476;-82
2023/03/17 05:08:27;;;;;;;2.67;2.43;;;9.40;85.70;;;;;;5038032;28;20478;-83
2023/03/17 05:10:58;;;;;;;4.73;2.80;;;9.50;85.90;;;;;;5036421;28;20800;-84
2023/03/17 05:13:26;;;;;;;3.10;2.80;;;9.60;85.60;;;;;;5042334;28;20524;-84
2023/03/17 05:15:54;;;;;;;5.53;3.43;;;9.50;85.60;;;;;;5042524;28;20445;-83
2023/03/17 05:18:33;;;;;;;3.37;2.87;;;9.50;85.90;;;;;;5042930;28;20460;-83
2023/03/17 05:21:01;;;;;;;4.07;3.77;;;9.40;86.00;;;;;;5037508;28;20461;-83
2023/03/17 05:23:34;;;;;;;4.30;2.83;;;9.50;86.10;;;;;;5048143;28;20452;-86
2023/03/17 05:26:08;;;;;;;2.60;2.40;;;9.50;86.00;;;;;;5051696;28;20473;-83
2023/03/17 05:28:35;;;;;;;5.10;3.53;;;9.50;86.10;;;;;;5053232;28;20497;-83
2023/03/17 05:31:08;;;;;;;4.80;3.73;;;9.50;86.20;;;;;;5048053;28;20507;-82
2023/03/17 05:33:41;;;;;;;5.67;3.50;;;9.50;86.30;;;;;;5043851;28;20461;-83
2023/03/17 05:36:08;;;;;;;8.70;3.90;;;9.40;86.40;;;;;;5035930;28;20487;-83
2023/03/17 05:38:42;;;;;;;7.37;3.53;;;9.50;86.70;;;;;;5040232;28;20481;-83
2023/03/17 05:41:15;;;;;;;7.37;4.17;;;9.40;86.90;;;;;;5037853;28;20449;-82
2023/03/17 05:43:46;;;;;;;8.53;4.73;;;9.30;86.50;;;;;;5040829;28;20496;-83
2023/03/17 05:46:13;;;;;;;5.03;4.00;;;9.40;87.00;;;;;;5040785;28;20568;-83
2023/03/17 05:48:40;;;;;;;9.77;4.50;;;9.40;87.00;;;;;;5034452;28;20473;-83
2023/03/17 05:51:21;;;;;;;6.10;3.70;;;9.40;86.90;;;;;;5038887;28;20799;-83
2023/03/17 05:53:55;;;;;;;5.70;3.57;;;9.60;86.70;;;;;;5036643;28;20696;-82
2023/03/17 05:56:25;;;;;;;5.07;4.07;;;9.80;86.10;;;;;;5040049;28;20470;-83
2023/03/17 05:58:55;;;;;;;5.07;3.77;;;9.70;86.10;;;;;;5037972;28;20507;-86
2023/03/17 06:01:25;;;;;;;9.70;4.27;;;9.60;86.40;;;;;;5098089;22;20602;-83
2023/03/17 06:03:51;;;;;;;9.97;4.23;;;9.60;85.90;;;;;;5058855;28;20459;-84
2023/03/17 06:06:25;;;;;;;11.90;5.60;;;9.50;86.60;;;;;;5057361;28;20860;-83
2023/03/17 06:08:58;;;;;;;8.47;5.13;;;9.60;86.90;;;;;;5056667;28;20473;-85
2023/03/17 06:11:30;;;;;;;5.60;4.80;;;9.70;86.40;;;;;;5048004;28;20453;-83
2023/03/17 06:14:00;;;;;;;9.60;5.10;;;9.60;86.40;;;;;;5051868;28;20473;-84
2023/03/17 06:16:29;;;;;;;4.20;3.17;;;9.70;86.00;;;;;;5049543;28;20453;-82
2023/03/17 06:18:59;;;;;;;5.57;3.90;;;9.80;85.80;;;;;;5047731;28;20450;-83
2023/03/17 06:21:35;;;;;;;4.30;3.63;;;9.80;85.10;;;;;;5065453;28;20504;-83
2023/03/17 06:24:08;;;;;;;5.97;2.97;;;9.70;85.00;;;;;;5066895;28;20456;-84
2023/03/17 06:26:36;;;;;;;3.97;2.83;;;9.70;85.80;;;;;;5041078;28;20477;-83
2023/03/17 06:29:04;;;;;;;5.63;3.27;;;9.90;85.20;;;;;;5040333;28;20568;-84
2023/03/17 06:31:36;;;;;;;4.30;3.30;;;10.00;83.60;;;;;;5056288;28;20448;-85
2023/03/17 06:34:27;;;;;;;;;;;;;;;;;;;;;
2023/03/17 06:36:59;;;;;;;4.80;3.03;;;10.00;83.70;;;;;;5035397;28;20557;-83
2023/03/17 06:39:29;;;;;;;5.93;3.50;;;10.10;83.60;;;;;;5041528;28;20579;-83
2023/03/17 06:41:58;;;;;;;3.63;3.23;;;10.30;83.30;;;;;;5059327;28;20457;-83
2023/03/17 06:44:32;;;;;;;4.77;3.40;;;10.30;83.10;;;;;;5042117;28;20470;-83
2023/03/17 06:47:07;;;;;;;4.80;3.37;;;10.30;82.50;;;;;;5039837;28;20473;-84
2023/03/17 06:49:35;;;;;;;3.80;3.17;;;10.20;82.60;;;;;;5042734;28;20469;-84
2023/03/17 06:52:07;;;;;;;3.90;2.77;;;10.20;82.80;;;;;;5067485;28;20441;-84
2023/03/17 06:54:35;;;;;;;3.97;2.60;;;10.20;82.80;;;;;;5050086;28;20480;-84
2023/03/17 06:57:06;;;;;;;4.00;3.10;;;10.10;82.90;;;;;;5053473;28;20442;-84
2023/03/17 06:59:34;;;;;;;3.03;2.73;;;10.40;82.50;;;;;;5049593;28;20495;-82
2023/03/17 07:02:02;;;;;;;5.70;3.23;;;10.10;82.10;;;;;;5039222;28;20477;-85
2023/03/17 07:04:30;;;;;;;3.67;2.43;;;10.30;82.50;;;;;;5038833;28;20453;-83
2023/03/17 07:07:02;;;;;;;3.33;2.97;;;10.50;81.70;;;;;;5041739;28;20545;-84
2023/03/17 07:09:33;;;;;;;2.90;2.70;;;10.40;81.40;;;;;;5039202;28;20473;-84
2023/03/17 07:12:04;;;;;;;5.77;3.20;;;10.40;81.50;;;;;;5037654;28;20454;-84
2023/03/17 07:14:35;;;;;;;3.60;3.13;;;10.50;80.90;;;;;;5054825;28;20807;-83
2023/03/17 07:17:06;;;;;;;4.33;3.33;;;10.50;80.60;;;;;;5092076;22;20500;-84
2023/03/17 07:19:35;;;;;;;3.27;2.97;;;10.60;81.00;;;;;;5076620;28;20476;-83
2023/03/17 07:22:02;;;;;;;4.57;3.03;;;10.80;80.30;;;;;;5078271;28;20882;-83
2023/03/17 07:24:31;;;;;;;3.80;3.43;;;10.90;79.90;;;;;;5081969;28;20531;-84
2023/03/17 07:27:04;;;;;;;4.70;3.53;;;11.50;80.10;;;;;;5222117;22;20473;-84
2023/03/17 07:29:37;;;;;;;3.40;2.90;;;12.40;76.10;;;;;;5026428;28;20553;-85
2023/03/17 07:32:19;;;;;;;5.70;3.00;;;13.10;73.60;;;;;;5021565;28;20462;-84
2023/03/17 07:34:51;;;;;;;5.00;3.17;;;14.00;71.00;;;;;;5014904;28;20478;-84
2023/03/17 07:37:20;;;;;;;3.30;2.47;;;14.50;67.50;;;;;;5014635;28;20487;-84
2023/03/17 07:39:50;;;;;;;4.70;3.10;;;14.70;66.00;;;;;;5020440;28;20466;-85
2023/03/17 07:42:19;;;;;;;5.17;4.47;;;14.70;64.80;;;;;;5025442;28;20450;-84
2023/03/17 07:44:47;;;;;;;3.47;3.17;;;14.50;65.20;;;;;;5024341;28;20465;-83
2023/03/17 07:47:15;;;;;;;3.53;2.70;;;15.30;65.30;;;;;;5017940;28;20478;-85
2023/03/17 07:49:47;;;;;;;4.90;2.93;;;15.70;62.50;;;;;;5021144;28;20501;-85
2023/03/17 07:52:38;;;;;;;6.17;3.10;;;15.40;61.00;;;;;;5036783;28;20474;-84
2023/03/17 07:55:28;;;;;;;4.03;2.70;;;15.40;61.40;;;;;;5018407;28;20446;-84
2023/03/17 07:58:11;;;;;;;4.27;2.60;;;15.20;60.90;;;;;;5011128;28;20446;-85
2023/03/17 08:00:55;;;;;;;3.23;2.80;;;14.70;61.90;;;;;;5029051;28;20457;-82
2023/03/17 08:03:37;;;;;;;5.43;3.27;;;14.50;63.10;;;;;;5018557;28;20466;-85
2023/03/17 08:06:22;;;;;;;4.10;3.70;;;14.30;63.40;;;;;;5016389;28;20992;-86
2023/03/17 08:09:10;;;;;;;4.40;3.53;;;13.80;64.70;;;;;;5021901;28;20474;-84
2023/03/17 08:14:59;;;;;;;6.00;3.10;;;13.00;67.70;;;;;;5017417;28;20876;-83
2023/03/17 08:17:40;;;;;;;3.77;3.33;;;12.80;68.80;;;;;;5017800;28;20466;-84
2023/03/17 08:20:46;;;;;;;4.07;3.23;;;12.80;69.70;;;;;;4971495;28;20479;-84
2023/03/17 08:23:41;;;;;;;;;;;;;;;;;;;;;
2023/03/17 08:30:42;;;;;;;3.23;2.30;;;12.70;70.40;;;;;;4914618;29;20578;-86
2023/03/17 08:33:56;;;;;;;3.37;2.33;;;12.70;70.80;;;;;;4901908;28;20481;-84
2023/03/17 08:36:56;;;;;;;4.23;3.83;;;12.80;71.60;;;;;;4969829;28;20902;-82
2023/03/17 08:40:08;;;;;;;3.33;3.00;;;12.80;72.00;;;;;;5014466;28;20640;-84
2023/03/17 08:43:02;;;;;;;3.17;2.87;;;13.00;71.10;;;;;;5016849;28;20486;-83
2023/03/17 08:46:25;;;;;;;3.07;2.77;;;13.20;71.20;;;;;;5023094;28;20462;-85
2023/03/17 08:49:25;;;;;;;;;;;;;;;;;;;;;
2023/03/17 08:52:15;;;;;;;3.30;2.77;;;13.40;70.60;;;;;;5013713;28;20637;-83
2023/03/17 08:54:59;;;;;;;3.23;2.90;;;13.60;70.30;;;;;;5014790;28;20640;-84
2023/03/17 08:58:21;;;;;;;4.40;2.87;;;13.70;70.60;;;;;;5027589;28;20480;-85
2023/03/17 09:01:37;;;;;;;3.43;3.03;;;14.00;70.20;;;;;;5017590;28;20462;-84
2023/03/17 09:04:28;;;;;;;3.13;2.83;;;13.80;69.00;;;;;;5017540;28;20497;-84
2023/03/17 09:07:15;;;;;;;3.90;3.03;;;13.70;69.80;;;;;;5032197;28;20504;-84
2023/03/17 09:10:03;;;;;;;5.23;3.70;;;13.80;69.70;;;;;;5084223;22;20483;-84
2023/03/17 09:13:31;;;;;;;;;;;;;;;;;;;;;
2023/03/17 09:16:28;;;;;;;5.50;3.63;;;14.00;69.70;;;;;;5087689;28;20810;-84
2023/03/17 09:19:20;;;;;;;7.13;3.17;;;14.10;69.50;;;;;;5083447;28;20509;-84
2023/03/17 09:21:56;;;;;;;3.07;2.87;;;14.20;68.70;;;;;;5083014;28;20485;-84
2023/03/17 09:24:50;;;;;;;3.87;2.43;;;14.10;69.10;;;;;;5082744;28;21066;-84
2023/03/17 09:27:21;;;;;;;3.80;2.90;;;13.90;69.20;;;;;;5077935;28;20502;-84
2023/03/17 09:30:09;;;;;;;3.97;2.60;;;14.10;69.40;;;;;;5080775;28;20498;-84
2023/03/17 09:37:00;;;;;;;5.93;3.23;;;14.50;68.80;;;;;;5073987;28;20443;-84
2023/03/17 09:50:30;;;;;;;2.20;2.00;;;14.90;65.80;;;;;;5063597;28;20463;-84
2023/03/17 09:53:12;;;;;;;4.97;2.10;;;14.70;65.50;;;;;;5054924;28;20512;-84
2023/03/17 09:56:21;;;;;;;5.33;2.10;;;15.00;65.10;;;;;;5063604;28;20436;-85
2023/03/17 09:59:52;;;;;;;;;;;;;;;;;;;;;
2023/03/17 10:09:55;;;;;;;;;;;;;;;;;;;;;
2023/03/17 10:13:16;;;;;;;1.87;1.70;;;16.10;60.80;;;;;;4972670;28;20437;-85
2023/03/17 10:16:50;;;;;;;2.67;1.97;;;16.30;60.00;;;;;;4956714;28;20434;-83
2023/03/17 10:19:44;;;;;;;2.70;1.80;;;16.20;60.30;;;;;;4959528;28;20507;-84
2023/03/17 10:23:12;;;;;;;3.77;2.10;;;16.70;59.80;;;;;;4967247;28;20450;-85
2023/03/17 10:32:47;;;;;;;2.63;1.80;;;17.90;57.30;;;;;;5108486;22;20517;-84
2023/03/17 10:36:38;;;;;;;6.03;2.80;;;17.90;56.80;;;;;;5041173;28;20512;-84
2023/03/17 10:39:31;;;;;;;3.03;2.27;;;17.70;56.50;;;;;;5054694;22;20495;-85
2023/03/17 10:42:40;;;;;;;4.00;2.17;;;17.10;57.90;;;;;;5025581;28;20462;-84
2023/03/17 10:45:56;;;;;;;2.93;2.23;;;16.80;58.30;;;;;;5014905;28;20454;-83
2023/03/17 10:48:49;;;;;;;2.63;1.90;;;16.70;58.10;;;;;;5025021;28;20484;-84
2023/03/17 10:51:28;;;;;;;3.37;1.60;;;16.90;58.40;;;;;;5030735;28;20509;-83
2023/03/17 10:54:08;;;;;;;3.00;1.97;;;16.80;58.30;;;;;;5033372;28;20454;-83
2023/03/17 10:56:46;;;;;;;3.10;2.23;;;17.10;58.00;;;;;;5037513;28;20433;-85
2023/03/17 10:59:30;;;;;;;3.77;1.90;;;17.10;58.20;;;;;;5036378;28;20484;-85
2023/03/17 11:02:22;;;;;;;3.90;2.23;;;17.20;58.30;;;;;;5038195;28;20461;-84
2023/03/17 11:04:58;;;;;;;3.10;2.03;;;17.00;58.70;;;;;;5034156;28;20457;-84
2023/03/17 11:07:42;;;;;;;2.60;2.40;;;17.00;58.70;;;;;;5033753;28;20489;-83
2023/03/17 11:10:33;;;;;;;3.00;2.37;;;17.40;58.40;;;;;;5085723;22;20492;-83
2023/03/17 11:13:31;;;;;;;1.97;1.77;;;17.70;58.20;;;;;;5038968;28;20518;-85
2023/03/17 11:16:23;;;;;;;2.07;1.87;;;18.00;57.60;;;;;;5030484;28;20449;-85
2023/03/17 11:19:35;;;;;;;3.63;2.63;;;18.20;56.90;;;;;;5041482;28;20470;-83
2023/03/17 11:22:55;;;;;;;2.30;1.90;;;18.00;56.80;;;;;;5018159;28;20446;-84
2023/03/17 11:26:03;;;;;;;2.60;2.40;;;17.90;57.20;;;;;;5008316;28;20463;-83
2023/03/17 11:28:44;;;;;;;3.13;1.83;;;18.10;57.30;;;;;;5018294;28;20490;-83
2023/03/17 11:31:45;;;;;;;;;;;;;;;;;;;;;
2023/03/17 11:34:42;;;;;;;7.30;2.00;;;18.10;56.60;;;;;;5015406;28;20526;-83
2023/03/17 11:37:30;;;;;;;2.50;2.30;;;17.70;56.80;;;;;;5046215;28;20450;-84
2023/03/17 11:40:34;;;;;;;4.33;2.00;;;17.20;57.60;;;;;;5023490;28;20474;-84
2023/03/17 11:44:20;;;;;;;1.90;1.80;;;17.10;58.70;;;;;;5017455;28;20458;-84
2023/03/17 11:47:26;;;;;;;4.90;2.10;;;17.80;58.50;;;;;;4941418;29;20496;-84
2023/03/17 11:51:00;;;;;;;5.00;2.20;;;17.80;59.40;;;;;;5069956;22;20480;-83
2023/03/17 11:53:44;;;;;;;1.70;1.60;;;18.40;57.70;;;;;;5039942;28;20463;-84
2023/03/17 11:56:30;;;;;;;2.87;2.33;;;19.00;56.10;;;;;;5034771;28;20457;-84
2023/03/17 12:05:39;;;;;;;3.93;1.80;;;19.00;55.20;;;;;;5039645;26;20531;-84
2023/03/17 12:09:06;;;;;;;3.10;2.17;;;18.70;55.70;;;;;;5040540;28;20508;-83
2023/03/17 12:12:19;;;;;;;3.93;1.80;;;18.40;56.20;;;;;;5029371;28;20544;-82
2023/03/17 12:15:17;;;;;;;3.80;1.60;;;18.00;57.00;;;;;;5026893;28;20464;-83
2023/03/17 12:18:26;;;;;;;2.93;1.90;;;17.80;57.50;;;;;;5027316;28;20541;-84
2023/03/17 12:21:41;;;;;;;2.30;1.77;;;18.20;57.20;;;;;;5016228;28;20516;-83
2023/03/17 12:24:52;;;;;;;6.27;2.63;;;18.30;57.00;;;;;;5030787;28;20791;-82
2023/03/17 12:27:45;;;;;;;1.77;1.53;;;18.10;57.40;;;;;;5034814;28;20573;-82
2023/03/17 12:31:27;;;;;;;;;;;;;;;;;;;;;
2023/03/17 12:34:54;;;;;;;3.33;2.70;;;18.30;57.20;;;;;;5033426;28;20472;-84
2023/03/17 12:47:50;;;;;;;1.80;1.70;;;18.40;57.20;;;;;;5064074;28;20472;-84
2023/03/17 12:50:56;;;;;;;2.00;1.70;;;18.70;57.80;;;;;;5047024;28;20421;-85
2023/03/17 12:53:44;;;;;;;2.00;1.80;;;18.70;57.50;;;;;;5051130;28;20461;-85
2023/03/17 13:00:19;;;;;;;2.67;1.83;;;18.80;56.80;;;;;;5024635;28;20475;-81
2023/03/17 13:03:12;;;;;;;1.90;1.80;;;18.60;56.90;;;;;;5022495;28;20489;-81
2023/03/17 13:05:46;;;;;;;1.97;1.77;;;19.00;56.80;;;;;;5027390;28;20466;-83
2023/03/17 13:08:39;;;;;;;2.93;1.87;;;19.00;56.90;;;;;;5029343;28;20583;-83
2023/03/17 13:11:16;;;;;;;1.80;1.60;;;18.90;57.20;;;;;;5027904;28;20485;-82
2023/03/17 13:13:54;;;;;;;2.50;1.77;;;19.10;56.90;;;;;;5039499;28;20718;-82
2023/03/17 13:16:36;;;;;;;2.20;1.53;;;19.00;57.00;;;;;;5036023;28;20456;-84
2023/03/17 13:19:23;;;;;;;2.83;2.10;;;18.90;57.50;;;;;;5033628;28;20474;-83
2023/03/17 13:22:05;;;;;;;3.03;2.50;;;18.90;56.60;;;;;;5033074;28;20942;-82
2023/03/17 13:24:55;;;;;;;2.70;1.67;;;18.90;57.10;;;;;;5030029;28;20457;-83
2023/03/17 13:27:30;;;;;;;4.40;1.80;;;18.70;57.50;;;;;;5031721;28;20464;-83
2023/03/17 13:30:25;;;;;;;2.67;1.57;;;18.70;57.20;;;;;;5055788;28;20453;-84
2023/03/17 13:33:02;;;;;;;3.07;1.73;;;18.60;57.40;;;;;;5043287;28;20434;-83
2023/03/17 13:35:59;;;;;;;2.90;1.90;;;18.50;57.70;;;;;;5031156;28;20964;-84
2023/03/17 13:38:46;;;;;;;2.43;1.73;;;18.80;57.40;;;;;;5033767;28;20525;-82
2023/03/17 13:41:37;;;;;;;2.33;2.00;;;18.80;57.00;;;;;;5035433;28;20493;-83
2023/03/17 13:44:32;;;;;;;2.87;1.53;;;18.90;56.90;;;;;;5022913;28;20545;-82
2023/03/17 13:47:20;;;;;;;3.40;1.80;;;18.80;57.30;;;;;;5028362;28;20500;-83
2023/03/17 13:49:49;;;;;;;4.37;2.03;;;18.70;57.90;;;;;;5031023;28;20478;-83
2023/03/17 13:52:26;;;;;;;4.73;1.73;;;18.60;57.80;;;;;;5030042;28;20513;-81
2023/03/17 13:55:22;;;;;;;3.30;2.17;;;18.60;58.10;;;;;;5029811;28;20485;-80
2023/03/17 13:58:05;;;;;;;3.40;2.10;;;18.50;58.30;;;;;;5036805;28;20451;-83
2023/03/17 14:00:34;;;;;;;2.03;1.83;;;18.50;58.70;;;;;;5031831;28;20493;-84
2023/03/17 14:03:12;;;;;;;2.30;2.10;;;18.40;58.70;;;;;;5020717;28;20446;-82
2023/03/17 14:05:39;;;;;;;2.53;2.17;;;18.70;58.80;;;;;;5025370;28;20446;-83
2023/03/17 14:08:36;;;;;;;2.43;1.83;;;18.70;58.20;;;;;;5026992;28;20485;-83
2023/03/17 14:11:12;;;;;;;4.27;2.00;;;18.50;58.60;;;;;;5024209;28;20470;-83
2023/03/17 14:14:02;;;;;;;3.53;1.87;;;18.50;58.50;;;;;;5030524;28;20930;-83
2023/03/17 14:16:32;;;;;;;1.50;1.40;;;18.70;58.00;;;;;;5021773;28;20458;-83
2023/03/17 14:19:19;;;;;;;3.73;2.53;;;18.90;57.30;;;;;;5031292;28;20504;-83
2023/03/17 14:21:47;;;;;;;2.07;1.80;;;18.80;57.60;;;;;;5032928;28;20793;-83
2023/03/17 14:24:27;;;;;;;7.77;2.07;;;18.60;57.90;;;;;;5028064;28;20458;-83
2023/03/17 14:26:54;;;;;;;3.10;2.03;;;18.50;57.80;;;;;;5022671;28;20984;-83
2023/03/17 14:29:29;;;;;;;2.37;2.07;;;18.40;57.90;;;;;;5033636;28;20521;-83
2023/03/17 14:32:15;;;;;;;2.90;2.03;;;18.20;58.40;;;;;;5046527;28;20433;-80
2023/03/17 14:34:47;;;;;;;5.03;2.27;;;17.90;59.10;;;;;;5052096;28;20457;-83
2023/03/17 14:37:14;;;;;;;4.67;1.93;;;18.00;59.50;;;;;;5046699;28;20466;-83
2023/03/17 14:39:46;;;;;;;2.43;2.20;;;18.00;59.40;;;;;;5033603;28;20469;-82
2023/03/17 14:42:16;;;;;;;3.40;1.77;;;18.00;59.40;;;;;;5039349;28;20583;-83
2023/03/17 14:44:42;;;;;;;4.60;2.20;;;18.00;59.40;;;;;;5038874;28;20469;-82
2023/03/17 14:47:30;;;;;;;3.13;1.67;;;17.90;59.50;;;;;;5025741;28;20456;-82
2023/03/17 14:50:00;;;;;;;3.57;2.20;;;17.70;60.00;;;;;;5032929;28;20462;-82
2023/03/17 14:52:31;;;;;;;1.40;1.30;;;17.80;60.20;;;;;;5030633;28;20456;-83
2023/03/17 14:54:58;;;;;;;2.20;1.50;;;17.90;60.30;;;;;;5028989;28;20524;-82
2023/03/17 14:57:30;;;;;;;3.53;1.73;;;17.80;59.70;;;;;;5024937;28;20449;-83
2023/03/17 15:00:20;;;;;;;6.50;1.97;;;17.70;60.00;;;;;;5035064;28;20465;-82
2023/03/17 15:02:57;;;;;;;2.70;1.97;;;17.40;60.30;;;;;;5022903;28;20464;-82
2023/03/17 15:05:33;;;;;;;1.77;1.67;;;17.40;60.60;;;;;;5019822;28;20541;-85
2023/03/17 15:08:00;;;;;;;2.13;1.93;;;17.30;60.50;;;;;;5027888;28;20480;-84
2023/03/17 15:10:29;;;;;;;2.40;2.20;;;17.30;61.20;;;;;;5024790;28;20478;-84
2023/03/17 15:13:03;;;;;;;3.10;2.87;;;17.30;61.50;;;;;;5026647;28;20453;-81
2023/03/17 15:15:41;;;;;;;3.27;2.40;;;17.30;61.50;;;;;;5025309;28;20454;-83
2023/03/17 15:18:13;;;;;;;4.37;2.00;;;17.20;62.10;;;;;;5027408;28;20541;-83
2023/03/17 15:20:42;;;;;;;2.20;2.00;;;17.10;62.50;;;;;;5030011;28;20475;-82
2023/03/17 15:23:18;;;;;;;4.33;1.70;;;17.10;62.80;;;;;;5026726;28;20467;-85
2023/03/17 15:25:48;;;;;;;1.70;1.47;;;17.10;62.80;;;;;;5030465;28;20511;-83
2023/03/17 15:28:17;;;;;;;2.87;2.20;;;17.00;63.10;;;;;;5034756;28;20505;-83
2023/03/17 15:30:46;;;;;;;3.00;1.60;;;16.90;63.30;;;;;;5033924;28;20441;-84
2023/03/17 15:33:21;;;;;;;2.13;1.93;;;16.90;63.70;;;;;;5030067;28;20438;-83
2023/03/17 15:35:49;;;;;;;1.63;1.53;;;16.90;63.90;;;;;;5029981;28;20654;-84
2023/03/17 15:38:16;;;;;;;1.97;1.50;;;16.90;63.70;;;;;;5032680;28;20449;-84
2023/03/17 15:40:42;;;;;;;4.00;2.03;;;17.00;64.00;;;;;;5028245;28;20482;-83
2023/03/17 15:43:14;;;;;;;1.80;1.53;;;17.00;63.80;;;;;;5031199;28;20448;-82
2023/03/17 15:45:44;;;;;;;6.03;1.90;;;16.90;64.00;;;;;;5037397;28;20509;-82
2023/03/17 15:48:20;;;;;;;5.80;1.70;;;16.90;64.50;;;;;;5071350;28;20556;-83